Arklow Rogue — EIGD — position and weather

sailwx.info

Track history (hours):
 
Tides and Currents Weather Stations Pressure Air Temp Water Temp Dewpoint Dewpoint Depression Visibility Wind Speed Wind Dir Waves Ship Positions

Arklow Rogue

Last reported at 2017-Jun-28 06:14 UTC. Time now 2017-Jun-28 14:12 UTC.
Position N 53°44' W 006°11'.

Length 90 m; draft 3.4 m.

Type: Cargo ship. MMSI: 250000960.

Date/timePositionNaut miles runAvg speedWind from/ knotsBaromVisibWave heightAir tempDewpointWater temp
2017-Jun-28 06:14N 53°44' W 006°11'0 0.2
2017-Jun-28 06:00N 53°44' W 006°11'7610.0
2017-Jun-27 22:23N 53°35' W 004°02'4 9.7
2017-Jun-27 22:00N 53°35' W 003°56'510.1
2017-Jun-27 21:30N 53°35' W 003°48'510.4
2017-Jun-27 21:00N 53°34' W 003°39'611.4
2017-Jun-27 20:28N 53°33' W 003°29'612.4
2017-Jun-27 20:00N 53°32' W 003°19'612.6
2017-Jun-27 19:30N 53°32' W 003°09'713.2
2017-Jun-27 19:00N 53°27' W 003°01'0 0.4
2017-Jun-27 18:29N 53°27' W 003°01'0 0.5
2017-Jun-27 17:59N 53°27' W 003°01'0 0.0
2017-Jun-27 17:26N 53°27' W 003°01'0 0.0
2017-Jun-27 16:59N 53°27' W 003°01'0 0.0
2017-Jun-27 16:29N 53°27' W 003°01'0 0.0
2017-Jun-27 15:59N 53°27' W 003°01'0 0.0
2017-Jun-27 15:26N 53°27' W 003°01'0 0.0
2017-Jun-27 14:59N 53°27' W 003°01'0 0.0
2017-Jun-27 14:29N 53°27' W 003°01'0 0.0
2017-Jun-27 13:29N 53°27' W 003°01'0 0.0
2017-Jun-27 12:56N 53°27' W 003°01'0 0.0
2017-Jun-27 12:29N 53°27' W 003°01'0 0.0
2017-Jun-27 11:59N 53°27' W 003°01'0 0.0
2017-Jun-27 11:26N 53°27' W 003°01'0 0.0
2017-Jun-27 10:59N 53°27' W 003°01'0 0.0
2017-Jun-27 10:29N 53°27' W 003°01'0 0.0
2017-Jun-27 09:59N 53°27' W 003°01'0 0.0
2017-Jun-27 09:29N 53°27' W 003°01'0 0.0
2017-Jun-27 08:56N 53°27' W 003°01'0 0.0
2017-Jun-27 08:29N 53°27' W 003°01'0 0.0
2017-Jun-27 07:59N 53°27' W 003°01'0 0.0
2017-Jun-27 07:29N 53°27' W 003°01'0 0.0
2017-Jun-27 06:59N 53°27' W 003°01'0 0.0
2017-Jun-27 06:20N 53°27' W 003°01'0 0.0
2017-Jun-27 05:59N 53°27' W 003°01'0 0.0
2017-Jun-27 05:29N 53°27' W 003°01'0 0.0
2017-Jun-27 04:59N 53°27' W 003°01'0 0.0
2017-Jun-27 04:29N 53°27' W 003°01'0 0.0
2017-Jun-27 03:59N 53°27' W 003°01'0 0.0
2017-Jun-27 03:29N 53°27' W 003°01'0 0.0
2017-Jun-27 02:59N 53°27' W 003°01'0 0.0
2017-Jun-27 02:29N 53°27' W 003°01'0 0.0
2017-Jun-27 01:59N 53°27' W 003°01'0 0.0
2017-Jun-27 01:26N 53°27' W 003°01'0 0.0
2017-Jun-27 00:59N 53°27' W 003°01'0 0.0
2017-Jun-27 00:29N 53°27' W 003°01'0 0.0
2017-Jun-26 23:59N 53°27' W 003°01'0 0.0
2017-Jun-26 23:26N 53°27' W 003°01'0 0.0
2017-Jun-26 22:59N 53°27' W 003°01'0 0.0
2017-Jun-26 22:26N 53°27' W 003°01'0 0.0
2017-Jun-26 21:53N 53°27' W 003°01'0 0.0
2017-Jun-26 21:23N 53°27' W 003°01'0 0.0
2017-Jun-26 20:59N 53°27' W 003°01'0 0.0
2017-Jun-26 20:29N 53°27' W 003°01'0 0.0
2017-Jun-26 19:59N 53°27' W 003°01'0 0.0
2017-Jun-26 19:29N 53°27' W 003°01'0 0.0
2017-Jun-26 18:59N 53°27' W 003°01'0 0.4
2017-Jun-26 18:30N 53°27' W 003°01'0 0.5
2017-Jun-26 18:00N 53°27' W 003°01'0 0.2
2017-Jun-26 17:30N 53°27' W 003°01'1 1.1
2017-Jun-26 17:00N 53°27' W 003°02'3 6.4
2017-Jun-26 16:30N 53°30' W 003°06'3 6.3
2017-Jun-26 16:00N 53°32' W 003°09'4 8.1
2017-Jun-26 15:30N 53°31' W 003°16'3 6.0
2017-Jun-26 15:00N 53°31' W 003°21'2 4.5
2017-Jun-26 14:30N 53°29' W 003°23'0 0.4
2017-Jun-26 13:29N 53°28' W 003°22'0 0.0
2017-Jun-26 12:53N 53°28' W 003°22'0 0.1
2017-Jun-26 12:29N 53°28' W 003°22'0 0.1
2017-Jun-26 11:56N 53°28' W 003°22'0 0.1
2017-Jun-26 11:29N 53°28' W 003°22'0 0.0
2017-Jun-26 10:59N 53°28' W 003°22'0 0.0
2017-Jun-26 10:29N 53°28' W 003°22'0 0.0
2017-Jun-26 09:59N 53°28' W 003°22'0 0.0
2017-Jun-26 09:23N 53°28' W 003°22'0 0.6
2017-Jun-26 09:00N 53°29' W 003°22'510.4
2017-Jun-26 08:30N 53°30' W 003°31'713.0
2017-Jun-26 08:00N 53°30' W 003°42'612.4
2017-Jun-26 07:30N 53°30' W 003°52'611.6
2017-Jun-26 07:00N 53°31' W 004°02'13610.4
2017-Jun-25 17:54N 51°56' W 006°43'611.6
2017-Jun-25 17:25N 51°54' W 006°51'511.5
2017-Jun-25 17:01N 51°52' W 006°58'611.4
2017-Jun-25 16:30N 51°50' W 007°07'611.3
2017-Jun-25 16:00N 51°48' W 007°15'611.3
2017-Jun-25 15:30N 51°46' W 007°24'611.2
2017-Jun-25 15:01N 51°44' W 007°32'1111.2
2017-Jun-25 14:00N 51°40' W 007°49'611.3
2017-Jun-25 13:30N 51°39' W 007°58'611.1
2017-Jun-25 13:00N 51°37' W 008°06'611.0
2017-Jun-25 12:30N 51°35' W 008°14'511.0
2017-Jun-25 12:00N 51°33' W 008°23'510.9
2017-Jun-25 11:30N 51°31' W 008°31'510.9
2017-Jun-25 11:00N 51°29' W 008°39'510.9
2017-Jun-25 10:30N 51°27' W 008°47'510.7
2017-Jun-25 10:01N 51°25' W 008°55'510.6
2017-Jun-25 09:30N 51°23' W 009°03'511.0
2017-Jun-25 09:01N 51°22' W 009°12'611.2
2017-Jun-25 08:31N 51°20' W 009°20'611.1
2017-Jun-25 08:00N 51°18' W 009°29'510.9
2017-Jun-25 07:30N 51°18' W 009°37'611.9
2017-Jun-25 07:00N 51°21' W 009°46'612.2
2017-Jun-25 06:30N 51°24' W 009°54'612.0
2017-Jun-25 06:00N 51°27' W 010°02'612.2
2017-Jun-25 05:30N 51°30' W 010°11'612.0
2017-Jun-25 04:59N 51°33' W 010°20'41 8.4
2017-Jun-25 00:04N 52°14' W 010°26'310.3
2017-Jun-24 23:49N 52°16' W 010°22'  
2017-Jun-21 08:17N 52°33' W 009°43'611.6
2017-Jun-21 07:44N 52°30' W 009°51'512.4
2017-Jun-21 07:21N 52°27' W 009°58'1112.2
2017-Jun-21 06:26N 52°20' W 010°12'1012.4
2017-Jun-21 05:38N 52°14' W 010°25'212.8
2017-Jun-21 05:27N 52°13' W 010°28'2910.4
2017-Jun-21 02:42N 51°44' W 010°35'412.3
2017-Jun-21 02:21N 51°41' W 010°30'412.2
2017-Jun-21 02:00N 51°38' W 010°26'612.4
2017-Jun-21 01:31N 51°33' W 010°20'612.3
2017-Jun-21 01:00N 51°30' W 010°11'612.4
2017-Jun-21 00:30N 51°27' W 010°02'612.5
2017-Jun-21 00:00N 51°24' W 009°53'612.2
2017-Jun-20 23:30N 51°21' W 009°45'611.1
2017-Jun-20 23:00N 51°21' W 009°36'612.1
2017-Jun-20 22:30N 51°23' W 009°27'612.2
2017-Jun-20 22:00N 51°25' W 009°18'612.5
2017-Jun-20 21:30N 51°27' W 009°08'612.7
2017-Jun-20 21:01N 51°29' W 008°58'612.9
2017-Jun-20 20:30N 51°31' W 008°49'713.1
2017-Jun-20 20:00N 51°33' W 008°39'713.0
2017-Jun-20 19:30N 51°35' W 008°29'613.0
2017-Jun-20 19:00N 51°38' W 008°20'713.1
2017-Jun-20 18:30N 51°42' W 008°11'713.1
2017-Jun-20 18:00N 51°45' W 008°02'612.8
2017-Jun-20 17:30N 51°48' W 007°53'612.7
2017-Jun-20 17:00N 51°52' W 007°44'612.6
2017-Jun-20 16:30N 51°55' W 007°35'612.3
2017-Jun-20 16:00N 51°58' W 007°26'612.4
2017-Jun-20 15:30N 52°01' W 007°18'612.5
2017-Jun-20 15:01N 52°04' W 007°09'1111.3
2017-Jun-20 14:00N 52°12' W 006°56'5 9.2
2017-Jun-20 13:30N 52°17' W 006°60'1 2.7
2017-Jun-20 13:00N 52°16' W 007°02'0 0.0
2017-Jun-20 12:29N 52°16' W 007°02'0 0.0
2017-Jun-20 11:59N 52°16' W 007°02'0 0.0
2017-Jun-20 11:26N 52°16' W 007°02'0 0.0
2017-Jun-20 10:50N 52°16' W 007°02'0 0.0
2017-Jun-20 10:29N 52°16' W 007°02'0 0.0
2017-Jun-20 09:59N 52°16' W 007°02'0 0.0
2017-Jun-20 09:29N 52°16' W 007°02'0 0.0
2017-Jun-20 08:59N 52°16' W 007°02'0 0.0
2017-Jun-20 08:23N 52°16' W 007°02'0 0.0
2017-Jun-20 07:59N 52°16' W 007°02'0 0.0
2017-Jun-20 07:29N 52°16' W 007°02'0 0.0
2017-Jun-20 06:59N 52°16' W 007°02'0 0.0
2017-Jun-20 06:29N 52°16' W 007°02'0 0.0
2017-Jun-20 05:56N 52°16' W 007°02'0 0.0
2017-Jun-20 05:29N 52°16' W 007°02'0 0.0
2017-Jun-20 04:59N 52°16' W 007°02'0 0.0
2017-Jun-20 04:29N 52°16' W 007°02'0 0.0
2017-Jun-20 03:59N 52°16' W 007°02'0 0.0
2017-Jun-20 03:29N 52°16' W 007°02'0 0.0
2017-Jun-20 02:59N 52°16' W 007°02'0 0.0
2017-Jun-20 02:26N 52°16' W 007°02'0 0.0
2017-Jun-20 01:59N 52°16' W 007°02'0 0.0
2017-Jun-20 01:29N 52°16' W 007°02'0 0.0
2017-Jun-20 00:59N 52°16' W 007°02'0 0.0
2017-Jun-20 00:29N 52°16' W 007°02'0 0.0
2017-Jun-19 23:59N 52°16' W 007°02'0 0.0
2017-Jun-19 23:29N 52°16' W 007°02'0 0.0
2017-Jun-19 22:59N 52°16' W 007°02'0 0.0
2017-Jun-19 22:29N 52°16' W 007°02'0 0.0
2017-Jun-19 21:59N 52°16' W 007°02'0 0.0
2017-Jun-19 21:23N 52°16' W 007°02'0 0.0
2017-Jun-19 20:53N 52°16' W 007°02'0 0.0
2017-Jun-19 20:26N 52°16' W 007°02'0 0.0
2017-Jun-19 19:59N 52°16' W 007°02'0 0.0
2017-Jun-19 19:26N 52°16' W 007°02'0 0.0
2017-Jun-19 18:50N 52°16' W 007°02'0 0.0
2017-Jun-19 18:17N 52°16' W 007°02'0 0.0
2017-Jun-19 17:59N 52°16' W 007°02'0 0.0
2017-Jun-19 17:29N 52°16' W 007°02'0 0.0
2017-Jun-19 16:59N 52°16' W 007°02'0 0.0
2017-Jun-19 16:29N 52°16' W 007°02'0 0.0
2017-Jun-19 15:59N 52°16' W 007°02'0 0.0
2017-Jun-19 15:29N 52°16' W 007°02'0 0.0
2017-Jun-19 14:59N 52°16' W 007°02'0 0.0
2017-Jun-19 13:59N 52°16' W 007°02'0 0.0
2017-Jun-19 13:29N 52°16' W 007°02'0 0.0
2017-Jun-19 12:59N 52°16' W 007°02'0 0.0
2017-Jun-19 12:29N 52°16' W 007°02'0 0.0
2017-Jun-19 11:59N 52°16' W 007°02'0 0.0
2017-Jun-19 11:29N 52°16' W 007°02'0 0.0
2017-Jun-19 10:59N 52°16' W 007°02'0 0.0
2017-Jun-19 10:20N 52°16' W 007°02'0 0.0
2017-Jun-19 09:59N 52°16' W 007°02'0 0.0
2017-Jun-19 09:29N 52°16' W 007°02'0 0.0
2017-Jun-19 08:59N 52°16' W 007°02'0 0.0
2017-Jun-19 08:29N 52°16' W 007°02'0 0.0
2017-Jun-19 07:59N 52°16' W 007°02'0 0.0
2017-Jun-19 07:29N 52°16' W 007°02'0 0.0
2017-Jun-19 06:59N 52°16' W 007°02'0 0.0
2017-Jun-19 06:29N 52°16' W 007°02'0 0.0
2017-Jun-19 05:59N 52°16' W 007°02'0 0.0
2017-Jun-19 05:29N 52°16' W 007°02'0 0.0
2017-Jun-19 04:59N 52°16' W 007°02'0 0.0
2017-Jun-19 04:29N 52°16' W 007°02'0 0.0
2017-Jun-19 03:56N 52°16' W 007°02'0 0.0
2017-Jun-19 03:29N 52°16' W 007°02'0 0.0
2017-Jun-19 02:59N 52°16' W 007°02'0 0.0
2017-Jun-19 02:29N 52°16' W 007°02'0 0.0
2017-Jun-19 01:59N 52°16' W 007°02'0 0.0
2017-Jun-19 01:29N 52°16' W 007°02'0 0.0
2017-Jun-19 00:59N 52°16' W 007°02'0 0.0
2017-Jun-19 00:29N 52°16' W 007°02'0 0.0
2017-Jun-18 23:59N 52°16' W 007°02'0 0.0
2017-Jun-18 23:26N 52°16' W 007°02'0 0.0
2017-Jun-18 22:59N 52°16' W 007°02'0 0.0
2017-Jun-18 22:29N 52°16' W 007°02'0 0.0
2017-Jun-18 21:59N 52°16' W 007°02'0 0.0
2017-Jun-18 21:29N 52°16' W 007°02'0 0.0
2017-Jun-18 20:59N 52°16' W 007°02'0 0.0
2017-Jun-18 20:17N 52°16' W 007°02'0 0.0
2017-Jun-18 19:56N 52°16' W 007°02'0 0.0
2017-Jun-18 19:29N 52°16' W 007°02'0 0.0
2017-Jun-18 18:59N 52°16' W 007°02'0 0.0
2017-Jun-18 18:29N 52°16' W 007°02'0 0.0
2017-Jun-18 17:56N 52°16' W 007°02'0 0.0
2017-Jun-18 17:23N 52°16' W 007°02'0 0.0
2017-Jun-18 16:59N 52°16' W 007°02'0 0.0
2017-Jun-18 16:17N 52°16' W 007°02'0 0.0
2017-Jun-18 15:59N 52°16' W 007°02'0 0.0
2017-Jun-18 15:29N 52°16' W 007°02'0 0.0
2017-Jun-18 14:59N 52°16' W 007°02'0 0.0
2017-Jun-18 14:23N 52°16' W 007°02'0 0.0
2017-Jun-18 13:56N 52°16' W 007°02'0 0.0
2017-Jun-18 13:26N 52°16' W 007°02'0 0.0
2017-Jun-18 12:56N 52°16' W 007°02'0 0.0
2017-Jun-18 12:29N 52°16' W 007°02'0 0.0
2017-Jun-18 11:56N 52°16' W 007°02'0 0.0
2017-Jun-18 11:26N 52°16' W 007°02'0 0.0
2017-Jun-18 10:50N 52°16' W 007°02'0 0.0
2017-Jun-18 10:31N 52°16' W 007°02'0 0.4
2017-Jun-18 10:00N 52°16' W 007°01'3 6.9
2017-Jun-18 09:30N 52°14' W 006°57'510.2
2017-Jun-18 09:00N 52°09' W 006°58'1 0.9
2017-Jun-18 08:09N 52°08' W 006°58'0 0.1
2017-Jun-18 07:57N 52°08' W 006°58'0 0.1
2017-Jun-18 07:27N 52°08' W 006°58'0 0.1
2017-Jun-18 06:57N 52°08' W 006°58'0 0.0
2017-Jun-18 06:30N 52°08' W 006°58'  
Track history (hours):
 
Tides and Currents Weather Stations Pressure Air Temp Water Temp Dewpoint Dewpoint Depression Visibility Wind Speed Wind Dir Waves Ship Positions

Arklow Rogue

Last reported at 2017-Jun-28 06:14 UTC. Time now 2017-Jun-28 14:12 UTC.
Position N 53°44' W 006°11'.

Length 90 m; draft 3.4 m.

Type: Cargo ship. MMSI: 250000960.

Date/timePositionNaut miles runAvg speedWind from/ knotsBaromVisibWave heightAir tempDewpointWater temp
2017-Jun-28 06:14N 53°44' W 006°11'0 0.2
2017-Jun-28 06:00N 53°44' W 006°11'7610.0
2017-Jun-27 22:23N 53°35' W 004°02'4 9.7
2017-Jun-27 22:00N 53°35' W 003°56'510.1
2017-Jun-27 21:30N 53°35' W 003°48'510.4
2017-Jun-27 21:00N 53°34' W 003°39'611.4
2017-Jun-27 20:28N 53°33' W 003°29'612.4
2017-Jun-27 20:00N 53°32' W 003°19'612.6
2017-Jun-27 19:30N 53°32' W 003°09'713.2
2017-Jun-27 19:00N 53°27' W 003°01'0 0.4
2017-Jun-27 18:29N 53°27' W 003°01'0 0.5
2017-Jun-27 17:59N 53°27' W 003°01'0 0.0
2017-Jun-27 17:26N 53°27' W 003°01'0 0.0
2017-Jun-27 16:59N 53°27' W 003°01'0 0.0
2017-Jun-27 16:29N 53°27' W 003°01'0 0.0
2017-Jun-27 15:59N 53°27' W 003°01'0 0.0
2017-Jun-27 15:26N 53°27' W 003°01'0 0.0
2017-Jun-27 14:59N 53°27' W 003°01'0 0.0
2017-Jun-27 14:29N 53°27' W 003°01'0 0.0
2017-Jun-27 13:29N 53°27' W 003°01'0 0.0
2017-Jun-27 12:56N 53°27' W 003°01'0 0.0
2017-Jun-27 12:29N 53°27' W 003°01'0 0.0
2017-Jun-27 11:59N 53°27' W 003°01'0 0.0
2017-Jun-27 11:26N 53°27' W 003°01'0 0.0
2017-Jun-27 10:59N 53°27' W 003°01'0 0.0
2017-Jun-27 10:29N 53°27' W 003°01'0 0.0
2017-Jun-27 09:59N 53°27' W 003°01'0 0.0
2017-Jun-27 09:29N 53°27' W 003°01'0 0.0
2017-Jun-27 08:56N 53°27' W 003°01'0 0.0
2017-Jun-27 08:29N 53°27' W 003°01'0 0.0
2017-Jun-27 07:59N 53°27' W 003°01'0 0.0
2017-Jun-27 07:29N 53°27' W 003°01'0 0.0
2017-Jun-27 06:59N 53°27' W 003°01'0 0.0
2017-Jun-27 06:20N 53°27' W 003°01'0 0.0
2017-Jun-27 05:59N 53°27' W 003°01'0 0.0
2017-Jun-27 05:29N 53°27' W 003°01'0 0.0
2017-Jun-27 04:59N 53°27' W 003°01'0 0.0
2017-Jun-27 04:29N 53°27' W 003°01'0 0.0
2017-Jun-27 03:59N 53°27' W 003°01'0 0.0
2017-Jun-27 03:29N 53°27' W 003°01'0 0.0
2017-Jun-27 02:59N 53°27' W 003°01'0 0.0
2017-Jun-27 02:29N 53°27' W 003°01'0 0.0
2017-Jun-27 01:59N 53°27' W 003°01'0 0.0
2017-Jun-27 01:26N 53°27' W 003°01'0 0.0
2017-Jun-27 00:59N 53°27' W 003°01'0 0.0
2017-Jun-27 00:29N 53°27' W 003°01'0 0.0
2017-Jun-26 23:59N 53°27' W 003°01'0 0.0
2017-Jun-26 23:26N 53°27' W 003°01'0 0.0
2017-Jun-26 22:59N 53°27' W 003°01'0 0.0
2017-Jun-26 22:26N 53°27' W 003°01'0 0.0
2017-Jun-26 21:53N 53°27' W 003°01'0 0.0
2017-Jun-26 21:23N 53°27' W 003°01'0 0.0
2017-Jun-26 20:59N 53°27' W 003°01'0 0.0
2017-Jun-26 20:29N 53°27' W 003°01'0 0.0
2017-Jun-26 19:59N 53°27' W 003°01'0 0.0
2017-Jun-26 19:29N 53°27' W 003°01'0 0.0
2017-Jun-26 18:59N 53°27' W 003°01'0 0.4
2017-Jun-26 18:30N 53°27' W 003°01'0 0.5
2017-Jun-26 18:00N 53°27' W 003°01'0 0.2
2017-Jun-26 17:30N 53°27' W 003°01'1 1.1
2017-Jun-26 17:00N 53°27' W 003°02'3 6.4
2017-Jun-26 16:30N 53°30' W 003°06'3 6.3
2017-Jun-26 16:00N 53°32' W 003°09'4 8.1
2017-Jun-26 15:30N 53°31' W 003°16'3 6.0
2017-Jun-26 15:00N 53°31' W 003°21'2 4.5
2017-Jun-26 14:30N 53°29' W 003°23'0 0.4
2017-Jun-26 13:29N 53°28' W 003°22'0 0.0
2017-Jun-26 12:53N 53°28' W 003°22'0 0.1
2017-Jun-26 12:29N 53°28' W 003°22'0 0.1
2017-Jun-26 11:56N 53°28' W 003°22'0 0.1
2017-Jun-26 11:29N 53°28' W 003°22'0 0.0
2017-Jun-26 10:59N 53°28' W 003°22'0 0.0
2017-Jun-26 10:29N 53°28' W 003°22'0 0.0
2017-Jun-26 09:59N 53°28' W 003°22'0 0.0
2017-Jun-26 09:23N 53°28' W 003°22'0 0.6
2017-Jun-26 09:00N 53°29' W 003°22'510.4
2017-Jun-26 08:30N 53°30' W 003°31'713.0
2017-Jun-26 08:00N 53°30' W 003°42'612.4
2017-Jun-26 07:30N 53°30' W 003°52'611.6
2017-Jun-26 07:00N 53°31' W 004°02'13610.4
2017-Jun-25 17:54N 51°56' W 006°43'611.6
2017-Jun-25 17:25N 51°54' W 006°51'511.5
2017-Jun-25 17:01N 51°52' W 006°58'611.4
2017-Jun-25 16:30N 51°50' W 007°07'611.3
2017-Jun-25 16:00N 51°48' W 007°15'611.3
2017-Jun-25 15:30N 51°46' W 007°24'611.2
2017-Jun-25 15:01N 51°44' W 007°32'1111.2
2017-Jun-25 14:00N 51°40' W 007°49'611.3
2017-Jun-25 13:30N 51°39' W 007°58'611.1
2017-Jun-25 13:00N 51°37' W 008°06'611.0
2017-Jun-25 12:30N 51°35' W 008°14'511.0
2017-Jun-25 12:00N 51°33' W 008°23'510.9
2017-Jun-25 11:30N 51°31' W 008°31'510.9
2017-Jun-25 11:00N 51°29' W 008°39'510.9
2017-Jun-25 10:30N 51°27' W 008°47'510.7
2017-Jun-25 10:01N 51°25' W 008°55'510.6
2017-Jun-25 09:30N 51°23' W 009°03'511.0
2017-Jun-25 09:01N 51°22' W 009°12'611.2
2017-Jun-25 08:31N 51°20' W 009°20'611.1
2017-Jun-25 08:00N 51°18' W 009°29'510.9
2017-Jun-25 07:30N 51°18' W 009°37'611.9
2017-Jun-25 07:00N 51°21' W 009°46'612.2
2017-Jun-25 06:30N 51°24' W 009°54'612.0
2017-Jun-25 06:00N 51°27' W 010°02'612.2
2017-Jun-25 05:30N 51°30' W 010°11'612.0
2017-Jun-25 04:59N 51°33' W 010°20'41 8.4
2017-Jun-25 00:04N 52°14' W 010°26'310.3
2017-Jun-24 23:49N 52°16' W 010°22'  
2017-Jun-21 08:17N 52°33' W 009°43'611.6
2017-Jun-21 07:44N 52°30' W 009°51'512.4
2017-Jun-21 07:21N 52°27' W 009°58'1112.2
2017-Jun-21 06:26N 52°20' W 010°12'1012.4
2017-Jun-21 05:38N 52°14' W 010°25'212.8
2017-Jun-21 05:27N 52°13' W 010°28'2910.4
2017-Jun-21 02:42N 51°44' W 010°35'412.3
2017-Jun-21 02:21N 51°41' W 010°30'412.2
2017-Jun-21 02:00N 51°38' W 010°26'612.4
2017-Jun-21 01:31N 51°33' W 010°20'612.3
2017-Jun-21 01:00N 51°30' W 010°11'612.4
2017-Jun-21 00:30N 51°27' W 010°02'612.5
2017-Jun-21 00:00N 51°24' W 009°53'612.2
2017-Jun-20 23:30N 51°21' W 009°45'611.1
2017-Jun-20 23:00N 51°21' W 009°36'612.1
2017-Jun-20 22:30N 51°23' W 009°27'612.2
2017-Jun-20 22:00N 51°25' W 009°18'612.5
2017-Jun-20 21:30N 51°27' W 009°08'612.7
2017-Jun-20 21:01N 51°29' W 008°58'612.9
2017-Jun-20 20:30N 51°31' W 008°49'713.1
2017-Jun-20 20:00N 51°33' W 008°39'713.0
2017-Jun-20 19:30N 51°35' W 008°29'613.0
2017-Jun-20 19:00N 51°38' W 008°20'713.1
2017-Jun-20 18:30N 51°42' W 008°11'713.1
2017-Jun-20 18:00N 51°45' W 008°02'612.8
2017-Jun-20 17:30N 51°48' W 007°53'612.7
2017-Jun-20 17:00N 51°52' W 007°44'612.6
2017-Jun-20 16:30N 51°55' W 007°35'612.3
2017-Jun-20 16:00N 51°58' W 007°26'612.4
2017-Jun-20 15:30N 52°01' W 007°18'612.5
2017-Jun-20 15:01N 52°04' W 007°09'1111.3
2017-Jun-20 14:00N 52°12' W 006°56'5 9.2
2017-Jun-20 13:30N 52°17' W 006°60'1 2.7
2017-Jun-20 13:00N 52°16' W 007°02'0 0.0
2017-Jun-20 12:29N 52°16' W 007°02'0 0.0
2017-Jun-20 11:59N 52°16' W 007°02'0 0.0
2017-Jun-20 11:26N 52°16' W 007°02'0 0.0
2017-Jun-20 10:50N 52°16' W 007°02'0 0.0
2017-Jun-20 10:29N 52°16' W 007°02'0 0.0
2017-Jun-20 09:59N 52°16' W 007°02'0 0.0
2017-Jun-20 09:29N 52°16' W 007°02'0 0.0
2017-Jun-20 08:59N 52°16' W 007°02'0 0.0
2017-Jun-20 08:23N 52°16' W 007°02'0 0.0
2017-Jun-20 07:59N 52°16' W 007°02'0 0.0
2017-Jun-20 07:29N 52°16' W 007°02'0 0.0
2017-Jun-20 06:59N 52°16' W 007°02'0 0.0
2017-Jun-20 06:29N 52°16' W 007°02'0 0.0
2017-Jun-20 05:56N 52°16' W 007°02'0 0.0
2017-Jun-20 05:29N 52°16' W 007°02'0 0.0
2017-Jun-20 04:59N 52°16' W 007°02'0 0.0
2017-Jun-20 04:29N 52°16' W 007°02'0 0.0
2017-Jun-20 03:59N 52°16' W 007°02'0 0.0
2017-Jun-20 03:29N 52°16' W 007°02'0 0.0
2017-Jun-20 02:59N 52°16' W 007°02'0 0.0
2017-Jun-20 02:26N 52°16' W 007°02'0 0.0
2017-Jun-20 01:59N 52°16' W 007°02'0 0.0
2017-Jun-20 01:29N 52°16' W 007°02'0 0.0
2017-Jun-20 00:59N 52°16' W 007°02'0 0.0
2017-Jun-20 00:29N 52°16' W 007°02'0 0.0
2017-Jun-19 23:59N 52°16' W 007°02'0 0.0
2017-Jun-19 23:29N 52°16' W 007°02'0 0.0
2017-Jun-19 22:59N 52°16' W 007°02'0 0.0
2017-Jun-19 22:29N 52°16' W 007°02'0 0.0
2017-Jun-19 21:59N 52°16' W 007°02'0 0.0
2017-Jun-19 21:23N 52°16' W 007°02'0 0.0
2017-Jun-19 20:53N 52°16' W 007°02'0 0.0
2017-Jun-19 20:26N 52°16' W 007°02'0 0.0
2017-Jun-19 19:59N 52°16' W 007°02'0 0.0
2017-Jun-19 19:26N 52°16' W 007°02'0 0.0
2017-Jun-19 18:50N 52°16' W 007°02'0 0.0
2017-Jun-19 18:17N 52°16' W 007°02'0 0.0
2017-Jun-19 17:59N 52°16' W 007°02'0 0.0
2017-Jun-19 17:29N 52°16' W 007°02'0 0.0
2017-Jun-19 16:59N 52°16' W 007°02'0 0.0
2017-Jun-19 16:29N 52°16' W 007°02'0 0.0
2017-Jun-19 15:59N 52°16' W 007°02'0 0.0
2017-Jun-19 15:29N 52°16' W 007°02'0 0.0
2017-Jun-19 14:59N 52°16' W 007°02'0 0.0
2017-Jun-19 13:59N 52°16' W 007°02'0 0.0
2017-Jun-19 13:29N 52°16' W 007°02'0 0.0
2017-Jun-19 12:59N 52°16' W 007°02'0 0.0
2017-Jun-19 12:29N 52°16' W 007°02'0 0.0
2017-Jun-19 11:59N 52°16' W 007°02'0 0.0
2017-Jun-19 11:29N 52°16' W 007°02'0 0.0
2017-Jun-19 10:59N 52°16' W 007°02'0 0.0
2017-Jun-19 10:20N 52°16' W 007°02'0 0.0
2017-Jun-19 09:59N 52°16' W 007°02'0 0.0
2017-Jun-19 09:29N 52°16' W 007°02'0 0.0
2017-Jun-19 08:59N 52°16' W 007°02'0 0.0
2017-Jun-19 08:29N 52°16' W 007°02'0 0.0
2017-Jun-19 07:59N 52°16' W 007°02'0 0.0
2017-Jun-19 07:29N 52°16' W 007°02'0 0.0
2017-Jun-19 06:59N 52°16' W 007°02'0 0.0
2017-Jun-19 06:29N 52°16' W 007°02'0 0.0
2017-Jun-19 05:59N 52°16' W 007°02'0 0.0
2017-Jun-19 05:29N 52°16' W 007°02'0 0.0
2017-Jun-19 04:59N 52°16' W 007°02'0 0.0
2017-Jun-19 04:29N 52°16' W 007°02'0 0.0
2017-Jun-19 03:56N 52°16' W 007°02'0 0.0
2017-Jun-19 03:29N 52°16' W 007°02'0 0.0
2017-Jun-19 02:59N 52°16' W 007°02'0 0.0
2017-Jun-19 02:29N 52°16' W 007°02'0 0.0
2017-Jun-19 01:59N 52°16' W 007°02'0 0.0
2017-Jun-19 01:29N 52°16' W 007°02'0 0.0
2017-Jun-19 00:59N 52°16' W 007°02'0 0.0
2017-Jun-19 00:29N 52°16' W 007°02'0 0.0
2017-Jun-18 23:59N 52°16' W 007°02'0 0.0
2017-Jun-18 23:26N 52°16' W 007°02'0 0.0
2017-Jun-18 22:59N 52°16' W 007°02'0 0.0
2017-Jun-18 22:29N 52°16' W 007°02'0 0.0
2017-Jun-18 21:59N 52°16' W 007°02'0 0.0
2017-Jun-18 21:29N 52°16' W 007°02'0 0.0
2017-Jun-18 20:59N 52°16' W 007°02'0 0.0
2017-Jun-18 20:17N 52°16' W 007°02'0 0.0
2017-Jun-18 19:56N 52°16' W 007°02'0 0.0
2017-Jun-18 19:29N 52°16' W 007°02'0 0.0
2017-Jun-18 18:59N 52°16' W 007°02'0 0.0
2017-Jun-18 18:29N 52°16' W 007°02'0 0.0
2017-Jun-18 17:56N 52°16' W 007°02'0 0.0
2017-Jun-18 17:23N 52°16' W 007°02'0 0.0
2017-Jun-18 16:59N 52°16' W 007°02'0 0.0
2017-Jun-18 16:17N 52°16' W 007°02'0 0.0
2017-Jun-18 15:59N 52°16' W 007°02'0 0.0
2017-Jun-18 15:29N 52°16' W 007°02'0 0.0
2017-Jun-18 14:59N 52°16' W 007°02'0 0.0
2017-Jun-18 14:23N 52°16' W 007°02'0 0.0
2017-Jun-18 13:56N 52°16' W 007°02'0 0.0
2017-Jun-18 13:26N 52°16' W 007°02'0 0.0
2017-Jun-18 12:56N 52°16' W 007°02'0 0.0
2017-Jun-18 12:29N 52°16' W 007°02'0 0.0
2017-Jun-18 11:56N 52°16' W 007°02'0 0.0
2017-Jun-18 11:26N 52°16' W 007°02'0 0.0
2017-Jun-18 10:50N 52°16' W 007°02'0 0.0
2017-Jun-18 10:31N 52°16' W 007°02'0 0.4
2017-Jun-18 10:00N 52°16' W 007°01'3 6.9
2017-Jun-18 09:30N 52°14' W 006°57'510.2
2017-Jun-18 09:00N 52°09' W 006°58'1 0.9
2017-Jun-18 08:09N 52°08' W 006°58'0 0.1
2017-Jun-18 07:57N 52°08' W 006°58'0 0.1
2017-Jun-18 07:27N 52°08' W 006°58'0 0.1
2017-Jun-18 06:57N 52°08' W 006°58'0 0.0
2017-Jun-18 06:30N 52°08' W 006°58'  

Dump ship's entire track history